Flight Track Log - Related Links

Times and Time Zones

All times are in EDT time to prevent confusion due to time zone crossing. See the RAM203 flight status page for this flight to view local times or setup timezone preferences in your user account.

Time Position Orientation Groundspeed Altitude Reporting Facility
EDT Latitude Longitude Course Direction KTS MPH feet Rate Location/Type
Fri 09:16:31 AM 40.6300 -73.7790 37° Northeast 130 150  Level FlightAware ADS-B
Fri 09:16:51 AM 40.6430 -73.7690 30° Northeast 172 198 100 1,667 Climbing FlightAware ADS-B
Fri 09:17:07 AM 40.6530 -73.7590 37° Northeast 168 193 1,000 3,300 Climbing FlightAware ADS-B
Fri 09:17:11 AM 40.6550 -73.7560 49° Northeast 170 196 1,200 3,000 Climbing FlightAware ADS-B
Fri 09:17:19 AM 40.6570 -73.7480 72° East 174 200 1,600 3,000 Climbing FlightAware ADS-B
Fri 09:17:27 AM 40.6580 -73.7390 82° East 174 200 2,000 2,571 Climbing FlightAware ADS-B
Fri 09:17:47 AM 40.6580 -73.7180 90° East 179 206 2,800 2,333 Climbing FlightAware ADS-B
Fri 09:18:03 AM 40.6590 -73.7000 86° East 193 222 3,400 1,750 Climbing FlightAware ADS-B
Fri 09:18:35 AM 40.6570 -73.6570 93° East 235 270 4,200 1,821 Climbing FlightAware ADS-B
Fri 09:18:59 AM 40.6520 -73.6220 101° East 260 299 5,100 1,909 Climbing FlightAware ADS-B
Fri 09:19:19 AM 40.6470 -73.5890 101° East 279 321 5,600 900 Climbing FlightAware ADS-B
Fri 09:19:39 AM 40.6420 -73.5560 101° East 281 323 5,700 150 Climbing FlightAware ADS-B
Fri 09:19:59 AM 40.6370 -73.5220 101° East 280 322 5,700  Level FlightAware ADS-B
Fri 09:20:20 AM 40.6320 -73.4880 101° East 279 321 5,700 429 Level FlightAware ADS-B
Fri 09:20:41 AM 40.6270 -73.4530 101° East 282 325 6,000 1,395 Climbing FlightAware ADS-B
Fri 09:21:03 AM 40.6210 -73.4140 101° East 291 335 6,700 1,000 Climbing FlightAware ADS-B
Fri 09:21:23 AM 40.6160 -73.3810 101° East 288 331 6,700 789 Level FlightAware ADS-B
Fri 09:21:41 AM 40.6110 -73.3500 102° East 290 334 7,200 2,700 Climbing FlightAware ADS-B
Fri 09:22:03 AM 40.6050 -73.3120 102° East 288 331 8,500 3,220 Climbing FlightAware ADS-B
Fri 09:22:22 AM 40.6010 -73.2820 100° East 292 336 9,400 2,694 Climbing FlightAware ADS-B
Fri 09:22:52 AM 40.5930 -73.2280 101° East 312 359 10,700 1,881 Climbing FlightAware ADS-B
Fri 09:23:29 AM 40.5820 -73.1550 101° East 358 412 11,500 1,737 Climbing FlightAware ADS-B
Fri 09:24:08 AM 40.5680 -73.0620 101° East 394 453 12,900 2,348 Climbing FlightAware ADS-B
Fri 09:24:38 AM 40.5580 -72.9970 101° East 404 465 14,200 2,800 Climbing FlightAware ADS-B
Fri 09:24:53 AM 40.5550 -72.9560 95° East 410 472 15,000 2,800 Climbing FlightAware ADS-B
Fri 09:25:38 AM 40.5660 -72.8400 83° East 424 488 17,000 2,538 Climbing FlightAware ADS-B
Fri 09:26:11 AM 40.5770 -72.7520 81° East 437 503 18,300 1,739 Climbing FlightAware ADS-B
Fri 09:26:47 AM 40.5870 -72.6620 82° East 445 512 19,000 1,233 Climbing FlightAware ADS-B
Fri 09:27:24 AM 40.6000 -72.5600 80° East 448 516 19,800 1,857 Climbing FlightAware ADS-B
Fri 09:28:11 AM 40.6140 -72.4320 82° East 458 527 21,600 2,207 Climbing FlightAware ADS-B
Fri 09:28:51 AM 40.6270 -72.3280 81° East 466 536 23,000 2,132 Climbing FlightAware ADS-B
Fri 09:29:27 AM 40.6390 -72.2170 82° East 477 549 24,300 1,913 Climbing FlightAware ADS-B
Fri 09:30:00 AM 40.6500 -72.1250 81° East 487 560 25,200 1,652 Climbing FlightAware ADS-B
Fri 09:30:36 AM 40.6620 -72.0210 81° East 495 570 26,200 1,714 Climbing FlightAware ADS-B
Fri 09:31:10 AM 40.6740 -71.9150 81° East 504 580 27,200 1,826 Climbing FlightAware ADS-B
Fri 09:31:45 AM 40.6860 -71.8070 82° East 509 586 28,300 1,944 Climbing FlightAware ADS-B
Fri 09:32:21 AM 40.6970 -71.7010 82° East 507 583 29,500 1,835 Climbing FlightAware ADS-B
Fri 09:33:10 AM 40.7130 -71.5580 82° East 506 582 30,900 1,851 Climbing FlightAware ADS-B
Fri 09:33:55 AM 40.7270 -71.4260 82° East 504 580 32,400 1,680 Climbing FlightAware ADS-B
Fri 09:34:25 AM 40.7390 -71.3180 82° East 498 573 33,000 474 Climbing FlightAware ADS-B
Fri 09:35:11 AM 40.7540 -71.1810 82° East 504 580 33,000  Level FlightAware ADS-B
Fri 09:35:49 AM 40.7640 -71.0830 82° East 504 580 33,000  Level FlightAware ADS-B
Fri 09:36:29 AM 40.7770 -70.9630 82° East 501 577 33,000  Level FlightAware ADS-B
Fri 09:37:01 AM 40.7870 -70.8650 82° East 510 587 33,000  Level FlightAware ADS-B
Fri 09:37:41 AM 40.7990 -70.7440 82° East 511 588 33,000  Level FlightAware ADS-B
Fri 09:38:17 AM 40.8090 -70.6500 82° East 511 588 33,000  Level FlightAware ADS-B
Fri 09:38:53 AM 40.8190 -70.5550 82° East 511 588 33,000  Level FlightAware ADS-B
Fri 09:39:29 AM 40.8290 -70.4600 82° East 511 588 33,000  Level FlightAware ADS-B
Fri 09:40:06 AM 40.8400 -70.3630 81° East 511 588 33,000  Level FlightAware ADS-B
Fri 09:40:42 AM 40.8500 -70.2680 82° East 511 588 33,000  Level FlightAware ADS-B
Fri 09:41:18 AM 40.8600 -70.1740 82° East 511 588 33,000  Level FlightAware ADS-B
Fri 09:41:54 AM 40.8700 -70.0790 82° East 511 588 33,000  Level FlightAware ADS-B
Fri 09:42:29 AM 40.8800 -69.9870 82° East 511 588 33,000  Level FlightAware ADS-B
Fri 09:43:05 AM 40.8900 -69.8920 82° East 511 588 33,000  Level FlightAware ADS-B
Fri 09:43:41 AM 40.9000 -69.7970 82° East 511 588 33,000  Level FlightAware ADS-B
Fri 09:44:17 AM 40.9100 -69.7030 82° East 511 588 33,000  Level FlightAware ADS-B
Fri 09:44:55 AM 40.9200 -69.6020 83° East 511 588 33,000  Level FlightAware ADS-B
Fri 09:45:32 AM 40.9310 -69.5050 81° East 511 588 33,000  Level FlightAware ADS-B
Fri 09:46:08 AM 40.9410 -69.4100 82° East 511 588 33,000  Level FlightAware ADS-B
Fri 09:46:44 AM 40.9510 -69.3150 82° East 511 588 33,000  Level FlightAware ADS-B
Fri 09:47:33 AM 40.9675 -68.9092 82° East 510 587 33,000  Level New York Center
Fri 09:48:33 AM 40.9853 -68.7192 83° East 516 594 33,000  Level New York Center
Fri 09:49:33 AM 41.0008 -68.5292 84° East 516 594 33,000  Level New York Center
Fri 09:50:33 AM 41.0139 -68.3472 85° East 516 594 33,000  Level New York Center
Fri 09:51:33 AM 41.0328 -68.1567 82° East 516 594 33,000  Level New York Center
Fri 09:52:33 AM 41.0475 -67.9692 84° East 516 594 33,000  Level New York Center
Fri 09:53:33 AM 41.0617 -67.7817 84° East 511 588 33,000  Level New York Center
Fri 09:54:33 AM 41.0739 -67.5967 85° East 511 588 33,000  Level New York Center
Fri 09:55:33 AM 41.0897 -67.4142 83° East 511 588 33,000 -350 Level New York Center
Fri 09:56:33 AM 41.0989 -67.2267 86° East 504 580 32,300 -500 Descending New York Center
Fri 09:57:33 AM 41.1142 -67.0442 84° East 504 580 32,000 -116 Descending New York Center
Fri 09:59:08 AM 41.1167 -67.0000 78° East 504 580 32,000  Level New York Oceanic (ODAPS)
Fri 10:03:20 AM 47.2670 -65.2780 84° East 32,000  Level FlightAware ADS-B
Fri 10:03:40 AM 47.3790 -65.1820 30° Northeast 490 564 32,000  Level FlightAware ADS-B
Fri 10:04:17 AM 47.3920 -65.0790 79° East 490 564 32,000  Level FlightAware ADS-B
Fri 10:04:51 AM 47.4050 -64.9840 79° East 490 564 32,000  Level FlightAware ADS-B
Fri 10:05:39 AM 47.4220 -64.8500 78° East 490 564 32,000  Level FlightAware ADS-B
Fri 10:06:15 AM 47.4360 -64.7490 78° East 490 564 32,000  Level FlightAware ADS-B
Fri 10:06:51 AM 47.4490 -64.6480 79° East 490 564 32,000  Level FlightAware ADS-B
Fri 10:07:25 AM 47.4610 -64.5530 79° East 490 564 32,000  Level FlightAware ADS-B
Fri 10:08:39 AM 47.4040 -62.5890 92° East 482 555 32,000  Level FlightAware ADS-B
Fri 10:09:20 AM 47.4190 -62.4770 79° East 482 555 32,000  Level FlightAware ADS-B
Fri 10:09:53 AM 41.4360 -64.8500 197° South 486 559 32,000  Level FlightAware ADS-B
Fri 10:10:34 AM 41.4510 -64.7370 80° East 487 560 32,000  Level FlightAware ADS-B
Fri 10:11:24 AM 41.4680 -64.6120 80° East 487 560 32,000  Level FlightAware ADS-B
Fri 10:12:00 AM 41.4800 -64.5210 80° East 487 560 32,000  Level FlightAware ADS-B
Fri 10:12:20 AM 47.4960 -61.8550 17° North 32,000  Level FlightAware ADS-B
Fri 10:12:52 AM 47.6100 -61.6860 45° Northeast 32,000  Level FlightAware ADS-B
Fri 10:13:17 AM 47.6190 -61.6080 80° East 398 458 32,000  Level FlightAware ADS-B
Fri 10:15:13 AM 47.6670 -61.2040 80° East 32,000  Level FlightAware ADS-B
Fri 10:15:48 AM 41.5800 -63.7700 198° South 520 598 32,000  Level FlightAware ADS-B
Fri 10:16:26 AM 41.5940 -63.6680 80° East 520 598 32,000  Level FlightAware ADS-B
Fri 10:17:04 AM 41.6070 -63.5660 80° East 520 598 32,000  Level FlightAware ADS-B
Fri 10:17:42 AM 41.6210 -63.4630 80° East 520 598 32,000  Level FlightAware ADS-B
Fri 10:18:27 AM 41.6440 -63.2660 81° East 529 609 32,000  Level FlightAware ADS-B
Fri 10:19:11 AM 41.6590 -63.1390 81° East 530 610 32,000  Level FlightAware ADS-B
Fri 10:19:48 AM 41.6710 -63.0370 81° East 530 610 32,000  Level FlightAware ADS-B
Fri 10:20:22 AM 41.6820 -62.9440 81° East 530 610 32,000  Level FlightAware ADS-B
Fri 10:20:59 AM 41.6940 -62.8420 81° East 530 610 32,000  Level FlightAware ADS-B
Fri 10:21:35 AM 41.7060 -62.7420 81° East 530 610 32,000  Level FlightAware ADS-B
Fri 10:22:13 AM 41.7180 -62.6380 81° East 530 610 32,000  Level FlightAware ADS-B
Fri 10:22:49 AM 41.7300 -62.5380 81° East 530 610 32,000  Level FlightAware ADS-B
Fri 10:23:25 AM 41.7420 -62.4390 81° East 530 610 32,000  Level FlightAware ADS-B
Fri 10:24:01 AM 41.7530 -62.3400 81° East 530 610 32,000  Level FlightAware ADS-B
Fri 10:24:36 AM 41.7650 -62.2430 81° East 530 610 32,000  Level FlightAware ADS-B
Fri 10:25:24 AM 41.7800 -62.1110 81° East 530 610 32,000  Level FlightAware ADS-B
Fri 10:26:00 AM 41.7920 -62.0110 81° East 530 610 32,000  Level FlightAware ADS-B
Fri 10:26:36 AM 41.8040 -61.9120 81° East 530 610 32,000  Level FlightAware ADS-B
Fri 10:27:12 AM 41.8160 -61.8120 81° East 530 610 32,000  Level FlightAware ADS-B
Fri 10:27:48 AM 41.8270 -61.7130 81° East 530 610 32,000  Level FlightAware ADS-B
Fri 10:28:24 AM 41.8390 -61.6140 81° East 530 610 32,000  Level FlightAware ADS-B
Fri 10:31:00 AM 41.8867 -61.1595 82° East  Level FlightAware Approximate
Fri 10:32:00 AM 41.9046 -60.9845 82° East  Level FlightAware Approximate
Fri 10:33:00 AM 41.9222 -60.8094 82° East  Level FlightAware Approximate
Fri 10:34:00 AM 41.9395 -60.6342 82° East  Level FlightAware Approximate
Fri 10:35:00 AM 41.9566 -60.4589 82° East  Level FlightAware Approximate
Fri 10:36:00 AM 41.9734 -60.2836 83° East  Level FlightAware Approximate
Fri 10:37:00 AM 41.9899 -60.1081 83° East  Level FlightAware Approximate
Fri 10:38:00 AM 42.0160 -59.9355 72° East  Level FlightAware Approximate
Fri 10:38:49 AM 42.0000 -60.0000 71° East 516 594 32,000  Level New York Oceanic (ODAPS)
Fri 10:39:00 AM 42.0574 -59.7675 72° East  Level FlightAware Approximate
Fri 10:40:00 AM 42.0985 -59.5992 72° East  Level FlightAware Approximate
Fri 10:41:00 AM 42.1394 -59.4308 72° East  Level FlightAware Approximate
Fri 10:42:00 AM 42.1801 -59.2621 72° East  Level FlightAware Approximate
Fri 10:43:00 AM 42.2205 -59.0932 72° East  Level FlightAware Approximate
Fri 10:44:00 AM 42.2606 -58.9241 72° East  Level FlightAware Approximate
Fri 10:45:00 AM 42.4858 -57.9797 73° East 516 594 32,000  Level FlightAware Transoceanic
Fri 10:46:00 AM 42.5282 -57.7945 73° East 516 594 32,000  Level FlightAware Transoceanic
Fri 10:47:00 AM 42.5703 -57.6091 73° East 516 594 32,000  Level FlightAware Transoceanic
Fri 10:48:00 AM 42.6121 -57.4234 73° East 516 594 32,000  Level FlightAware Transoceanic
Fri 10:49:00 AM 42.6536 -57.2374 73° East 516 594 32,000  Level FlightAware Transoceanic
Fri 10:50:00 AM 42.6948 -57.0512 73° East 516 594 32,000  Level FlightAware Transoceanic
Fri 10:51:00 AM 42.7357 -56.8648 73° East 516 594 32,000  Level FlightAware Transoceanic
Fri 10:52:00 AM 42.7763 -56.6781 74° East 516 594 32,000  Level FlightAware Transoceanic
Fri 10:53:00 AM 42.8166 -56.4912 74° East 516 594 32,000  Level FlightAware Transoceanic
Fri 10:54:00 AM 42.8565 -56.3040 74° East 516 594 32,000  Level FlightAware Transoceanic
Fri 10:55:00 AM 42.8962 -56.1166 74° East 516 594 32,000  Level FlightAware Transoceanic
Fri 10:56:00 AM 42.9356 -55.9290 74° East 516 594 32,000  Level FlightAware Transoceanic
Fri 10:57:00 AM 42.9746 -55.7411 74° East 516 594 32,000  Level FlightAware Transoceanic
Fri 10:58:00 AM 43.0134 -55.5529 74° East 516 594 32,000  Level FlightAware Transoceanic
Fri 10:59:00 AM 43.0518 -55.3646 74° East 516 594 32,000  Level FlightAware Transoceanic
Fri 11:00:00 AM 43.0900 -55.1760 75° East 516 594 32,000  Level FlightAware Transoceanic
Fri 11:01:00 AM 43.1278 -54.9871 75° East 516 594 32,000  Level FlightAware Transoceanic
Fri 11:02:00 AM 43.1653 -54.7981 75° East 516 594 32,000  Level FlightAware Transoceanic
Fri 11:03:00 AM 43.2025 -54.6088 75° East 516 594 32,000  Level FlightAware Transoceanic
Fri 11:04:00 AM 43.2394 -54.4193 75° East 516 594 32,000  Level FlightAware Transoceanic
Fri 11:05:00 AM 43.2760 -54.2295 75° East 516 594 32,000  Level FlightAware Transoceanic
Fri 11:06:00 AM 43.3123 -54.0395 75° East 516 594 32,000  Level FlightAware Transoceanic
Fri 11:07:00 AM 43.3482 -53.8493 75° East 516 594 32,000  Level FlightAware Transoceanic
Fri 11:08:00 AM 43.3839 -53.6589 76° East 516 594 32,000  Level FlightAware Transoceanic
Fri 11:09:00 AM 43.4192 -53.4682 76° East 516 594 32,000  Level FlightAware Transoceanic
Fri 11:10:00 AM 43.4542 -53.2773 76° East 516 594 32,000  Level FlightAware Transoceanic
Fri 11:11:00 AM 43.4889 -53.0862 76° East 516 594 32,000  Level FlightAware Transoceanic
Fri 11:12:00 AM 43.5232 -52.8949 76° East 516 594 32,000  Level FlightAware Transoceanic
Fri 11:13:00 AM 43.5573 -52.7034 76° East 516 594 32,000  Level FlightAware Transoceanic
Fri 11:14:00 AM 43.5910 -52.5116 76° East 516 594 32,000  Level FlightAware Transoceanic
Fri 11:15:00 AM 43.6244 -52.3197 77° East 516 594 32,000  Level FlightAware Transoceanic
Fri 11:16:00 AM 43.6575 -52.1275 77° East 516 594 32,000  Level FlightAware Transoceanic
Fri 11:17:00 AM 43.6903 -51.9351 77° East 516 594 32,000  Level FlightAware Transoceanic
Fri 11:18:00 AM 43.7227 -51.7425 77° East 516 594 32,000  Level FlightAware Transoceanic
Fri 11:19:00 AM 43.7548 -51.5497 77° East 516 594 32,000  Level FlightAware Transoceanic
Fri 11:20:00 AM 43.7866 -51.3567 77° East 516 594 32,000  Level FlightAware Transoceanic
Fri 11:21:00 AM 43.8181 -51.1635 77° East 516 594 32,000  Level FlightAware Transoceanic
Fri 11:22:00 AM 43.8492 -50.9701 77° East 516 594 32,000  Level FlightAware Transoceanic
Fri 11:23:00 AM 43.8800 -50.7765 78° East 516 594 32,000  Level FlightAware Transoceanic
Fri 11:24:00 AM 43.9105 -50.5826 78° East 516 594 32,000  Level FlightAware Transoceanic
Fri 11:25:00 AM 43.9407 -50.3886 78° East 516 594 32,000  Level FlightAware Transoceanic
Fri 11:26:00 AM 43.9705 -50.1944 78° East 516 594 32,000  Level FlightAware Transoceanic
Fri 11:27:00 AM 44.0000 -50.0000 87° East 516 594 32,000  Level FlightAware Transoceanic
Fri 11:28:00 AM 44.0082 -49.8081 87° East 516 594 32,000  Level FlightAware Transoceanic
Fri 11:29:00 AM 44.0161 -49.6162 87° East 516 594 32,000  Level FlightAware Transoceanic
Fri 11:30:00 AM 44.0237 -49.4243 87° East 516 594 32,000  Level FlightAware Transoceanic
Fri 11:31:00 AM 44.0310 -49.2322 87° East 516 594 32,000  Level FlightAware Transoceanic
Fri 11:32:00 AM 44.0379 -49.0402 87° East 516 594 32,000  Level FlightAware Transoceanic
Fri 11:33:00 AM 44.0445 -48.8481 87° East 516 594 32,000  Level FlightAware Transoceanic
Fri 11:33:29 AM 44.0000 -50.0000 87° East 499 574 32,000  Level New York Oceanic (ODAPS)
Fri 11:34:00 AM 44.0508 -48.6559 87° East 516 594 32,000  Level FlightAware Transoceanic
Fri 11:35:00 AM 44.0568 -48.4637 88° East 516 594 32,000  Level FlightAware Transoceanic
Fri 11:36:00 AM 44.0625 -48.2715 88° East 516 594 32,000  Level FlightAware Transoceanic
Fri 11:37:00 AM 44.0678 -48.0793 88° East 516 594 32,000  Level FlightAware Transoceanic
Fri 11:38:00 AM 44.0728 -47.8870 88° East 516 594 32,000  Level FlightAware Transoceanic
Fri 11:39:00 AM 44.0818 -47.5023 88° East 499 574 32,000  Level FlightAware Transoceanic
Fri 11:40:00 AM 44.0859 -47.3099 88° East 499 574 32,000  Level FlightAware Transoceanic
Fri 11:41:00 AM 44.0896 -47.1175 89° East 499 574 32,000  Level FlightAware Transoceanic
Fri 11:42:00 AM 44.0930 -46.9251 89° East 499 574 32,000  Level FlightAware Transoceanic
Fri 11:43:00 AM 44.0961 -46.7326 89° East 499 574 32,000  Level FlightAware Transoceanic
Fri 11:44:00 AM 44.0988 -46.5402 89° East 499 574 32,000  Level FlightAware Transoceanic
Fri 11:45:00 AM 44.1012 -46.3477 89° East 499 574 32,000  Level FlightAware Transoceanic
Fri 11:46:00 AM 44.1033 -46.1552 89° East 499 574 32,000  Level FlightAware Transoceanic
Fri 11:47:00 AM 44.1051 -45.9627 89° East 499 574 32,000  Level FlightAware Transoceanic
Fri 11:48:00 AM 44.1066 -45.7701 89° East 499 574 32,000  Level FlightAware Transoceanic
Fri 11:49:00 AM 44.1077 -45.5776 90° East 499 574 32,000  Level FlightAware Transoceanic
Fri 11:50:00 AM 44.1085 -45.3851 90° East 499 574 32,000  Level FlightAware Transoceanic
Fri 11:51:00 AM 44.1090 -45.1925 90° East 499 574 32,000  Level FlightAware Transoceanic
Fri 11:52:00 AM 44.1092 -45.0000 90° East 499 574 32,000  Level FlightAware Transoceanic
Fri 11:53:00 AM 44.1090 -44.8075 90° East 499 574 32,000  Level FlightAware Transoceanic
Fri 11:54:00 AM 44.1085 -44.6149 90° East 499 574 32,000  Level FlightAware Transoceanic
Fri 11:55:00 AM 44.1077 -44.4224 90° East 499 574 32,000  Level FlightAware Transoceanic
Fri 11:56:00 AM 44.1066 -44.2299 91° East 499 574 32,000  Level FlightAware Transoceanic
Fri 11:57:00 AM 44.1051 -44.0373 91° East 499 574 32,000  Level FlightAware Transoceanic
Fri 11:58:00 AM 44.1033 -43.8448 91° East 499 574 32,000  Level FlightAware Transoceanic
Fri 11:59:00 AM 44.1012 -43.6523 91° East 499 574 32,000  Level FlightAware Transoceanic
Fri 12:00:00 PM 44.0988 -43.4598 91° East 499 574 32,000  Level FlightAware Transoceanic
Fri 12:01:00 PM 44.0961 -43.2674 91° East 499 574 32,000  Level FlightAware Transoceanic
Fri 12:02:00 PM 44.0930 -43.0749 91° East 499 574 32,000  Level FlightAware Transoceanic
Fri 12:03:00 PM 44.0896 -42.8825 91° East 499 574 32,000  Level FlightAware Transoceanic
Fri 12:04:00 PM 44.0859 -42.6901 92° East 499 574 32,000  Level FlightAware Transoceanic
Fri 12:05:00 PM 44.0818 -42.4977 92° East 499 574 32,000  Level FlightAware Transoceanic
Fri 12:06:00 PM 44.0775 -42.3053 92° East 499 574 32,000  Level FlightAware Transoceanic
Fri 12:07:00 PM 44.0728 -42.1130 92° East 499 574 32,000  Level FlightAware Transoceanic
Fri 12:08:00 PM 44.0678 -41.9207 92° East 499 574 32,000  Level FlightAware Transoceanic
Fri 12:09:00 PM 44.0625 -41.7285 92° East 499 574 32,000  Level FlightAware Transoceanic
Fri 12:10:00 PM 44.0568 -41.5363 92° East 499 574 32,000  Level FlightAware Transoceanic
Fri 12:11:00 PM 44.0508 -41.3441 93° East 499 574 32,000  Level FlightAware Transoceanic
Fri 12:12:00 PM 44.0445 -41.1519 93° East 499 574 32,000  Level FlightAware Transoceanic
Fri 12:13:00 PM 44.0379 -40.9598 93° East 499 574 32,000  Level FlightAware Transoceanic
Fri 12:14:00 PM 44.0310 -40.7678 93° East 499 574 32,000  Level FlightAware Transoceanic
Fri 12:15:00 PM 44.0237 -40.5757 93° East 499 574 32,000  Level FlightAware Transoceanic
Fri 12:16:00 PM 44.0161 -40.3838 93° East 499 574 32,000  Level FlightAware Transoceanic
Fri 12:17:00 PM 44.0082 -40.1919 93° East 499 574 32,000  Level FlightAware Transoceanic
Fri 12:18:00 PM 44.0000 -40.0000 94° East 499 574 32,000  Level FlightAware Transoceanic
Fri 12:19:00 PM 43.9895 -39.8122 95° East 499 574 32,000  Level FlightAware Transoceanic
Fri 12:20:00 PM 43.9787 -39.6245 95° East 499 574 32,000  Level FlightAware Transoceanic
Fri 12:21:00 PM 43.9675 -39.4368 95° East 499 574 32,000  Level FlightAware Transoceanic
Fri 12:22:00 PM 43.9561 -39.2492 95° East 499 574 32,000 -769 Level FlightAware Transoceanic
Fri 12:22:18 PM 44.0000 -40.0000 94° East 478 550 31,000  Descending ETMS Enhanced Traffic Management System
Fri 12:23:00 PM 43.9444 -39.0617 95° East 499 574 32,000 588 Climbing FlightAware Transoceanic
Fri 12:24:00 PM 43.9323 -38.8742 95° East 499 574 32,000  Level FlightAware Transoceanic
Fri 12:25:00 PM 43.9200 -38.6869 95° East 499 574 32,000  Level FlightAware Transoceanic
Fri 12:26:00 PM 43.9073 -38.4996 95° East 499 574 32,000  Level FlightAware Transoceanic
Fri 12:27:00 PM 43.8944 -38.3124 96° East 499 574 32,000 -500 Level FlightAware Transoceanic
Fri 12:28:00 PM 43.8965 -38.3430 96° East 478 550 31,000 -500 Descending FlightAware Transoceanic
Fri 12:29:00 PM 43.8835 -38.1593 96° East 478 550 31,000  Level FlightAware Transoceanic
Fri 12:30:00 PM 43.8703 -37.9756 96° East 478 550 31,000  Level FlightAware Transoceanic
Fri 12:31:00 PM 43.8567 -37.7920 96° East 478 550 31,000  Level FlightAware Transoceanic
Fri 12:32:00 PM 43.8428 -37.6086 96° East 478 550 31,000  Level FlightAware Transoceanic
Fri 12:33:00 PM 43.8287 -37.4252 96° East 478 550 31,000  Level FlightAware Transoceanic
Fri 12:34:00 PM 43.8142 -37.2418 96° East 478 550 31,000  Level FlightAware Transoceanic
Fri 12:35:00 PM 43.7995 -37.0586 96° East 478 550 31,000  Level FlightAware Transoceanic
Fri 12:36:00 PM 43.7845 -36.8755 97° East 478 550 31,000  Level FlightAware Transoceanic
Fri 12:37:00 PM 43.7691 -36.6924 97° East 478 550 31,000  Level FlightAware Transoceanic
Fri 12:38:00 PM 43.7535 -36.5095 97° East 478 550 31,000  Level FlightAware Transoceanic
Fri 12:39:00 PM 43.7376 -36.3266 97° East 478 550 31,000  Level FlightAware Transoceanic
Fri 12:40:00 PM 43.7214 -36.1439 97° East 478 550 31,000  Level FlightAware Transoceanic
Fri 12:41:00 PM 43.7049 -35.9612 97° East 478 550 31,000  Level FlightAware Transoceanic
Fri 12:42:00 PM 43.6882 -35.7787 97° East 478 550 31,000  Level FlightAware Transoceanic
Fri 12:43:00 PM 43.6711 -35.5962 97° East 478 550 31,000  Level FlightAware Transoceanic
Fri 12:44:00 PM 43.6537 -35.4139 98° East 478 550 31,000  Level FlightAware Transoceanic
Fri 12:45:00 PM 43.6361 -35.2316 98° East 478 550 31,000  Level FlightAware Transoceanic
Fri 12:46:00 PM 43.6181 -35.0495 98° East 478 550 31,000  Level FlightAware Transoceanic
Fri 12:47:00 PM 43.5999 -34.8675 98° East 478 550 31,000  Level FlightAware Transoceanic
Fri 12:48:00 PM 43.5814 -34.6856 98° East 478 550 31,000  Level FlightAware Transoceanic
Fri 12:49:00 PM 43.5626 -34.5038 98° East 478 550 31,000  Level FlightAware Transoceanic
Fri 12:50:00 PM 43.5435 -34.3221 98° East 478 550 31,000  Level FlightAware Transoceanic
Fri 12:51:00 PM 43.5241 -34.1405 98° East 478 550 31,000  Level FlightAware Transoceanic
Fri 12:52:00 PM 43.5045 -33.9591 99° East 478 550 31,000  Level FlightAware Transoceanic
Fri 12:53:00 PM 43.4845 -33.7778 99° East 478 550 31,000  Level FlightAware Transoceanic
Fri 12:54:00 PM 43.4643 -33.5965 99° East 478 550 31,000  Level FlightAware Transoceanic
Fri 12:55:00 PM 43.4437 -33.4155 99° East 478 550 31,000  Level FlightAware Transoceanic
Fri 12:56:00 PM 43.4229 -33.2345 99° East 478 550 31,000  Level FlightAware Transoceanic
Fri 12:57:00 PM 43.4019 -33.0537 99° East 478 550 31,000  Level FlightAware Transoceanic
Fri 12:58:00 PM 43.3805 -32.8730 99° East 478 550 31,000  Level FlightAware Transoceanic
Fri 12:59:00 PM 43.3588 -32.6924 99° East 478 550 31,000  Level FlightAware Transoceanic
Fri 01:00:00 PM 43.3368 -32.5119 100° East 478 550 31,000  Level FlightAware Transoceanic
Fri 01:01:00 PM 43.3146 -32.3316 100° East 478 550 31,000  Level FlightAware Transoceanic
Fri 01:02:00 PM 43.2921 -32.1514 100° East 478 550 31,000  Level FlightAware Transoceanic
Fri 01:03:00 PM 43.2693 -31.9713 100° East 478 550 31,000  Level FlightAware Transoceanic
Fri 01:04:00 PM 43.2462 -31.7914 100° East 478 550 31,000  Level FlightAware Transoceanic
Fri 01:05:00 PM 43.2229 -31.6116 100° East 478 550 31,000  Level FlightAware Transoceanic
Fri 01:06:00 PM 43.1992 -31.4320 100° East 478 550 31,000  Level FlightAware Transoceanic
Fri 01:07:00 PM 43.1753 -31.2525 100° East 478 550 31,000  Level FlightAware Transoceanic
Fri 01:08:00 PM 43.1511 -31.0731 101° East 478 550 31,000  Level FlightAware Transoceanic
Fri 01:09:00 PM 43.1266 -30.8939 101° East 478 550 31,000  Level FlightAware Transoceanic
Fri 01:10:00 PM 43.1018 -30.7148 101° East 478 550 31,000  Level FlightAware Transoceanic
Fri 01:11:00 PM 43.0768 -30.5359 101° East 478 550 31,000 223 Level FlightAware Transoceanic
Fri 01:12:00 PM 43.0519 -30.3604 101° East  Level FlightAware Approximate
Fri 01:13:00 PM 43.0268 -30.1851 101° East  Level FlightAware Approximate
Fri 01:14:00 PM 43.0014 -30.0099 101° East  Level FlightAware Approximate
Fri 01:15:00 PM 42.9757 -29.8348 101° East  Level FlightAware Approximate
Fri 01:16:00 PM 42.9610 -29.8437 109° East  Level FlightAware Approximate
Fri 01:17:00 PM 42.9187 -29.6749 109° East  Level FlightAware Approximate
Fri 01:18:00 PM 42.8761 -29.5064 109° East  Level FlightAware Approximate
Fri 01:19:00 PM 42.8333 -29.3381 109° East  Level FlightAware Approximate
Fri 01:20:00 PM 42.7902 -29.1700 109° East  Level FlightAware Approximate
Fri 01:21:00 PM 42.7469 -29.0022 109° East  Level FlightAware Approximate
Fri 01:22:00 PM 42.7040 -28.8342 109° East  Level FlightAware Approximate
Fri 01:23:00 PM 42.6613 -28.6664 109° East  Level FlightAware Approximate
Fri 01:24:00 PM 42.6183 -28.4987 109° East  Level FlightAware Approximate
Fri 01:25:00 PM 42.5751 -28.3313 109° East  Level FlightAware Approximate
Fri 01:26:00 PM 42.5316 -28.1642 109° East  Level FlightAware Approximate
Fri 01:27:00 PM 42.4879 -27.9972 110° East  Level FlightAware Approximate
Fri 01:28:00 PM 42.4437 -27.8306 110° East  Level FlightAware Approximate
Fri 01:29:00 PM 42.3991 -27.6643 110° East  Level FlightAware Approximate
Fri 01:30:00 PM 42.3542 -27.4983 110° East  Level FlightAware Approximate
Fri 01:31:00 PM 42.3092 -27.3325 110° East  Level FlightAware Approximate
Fri 01:32:00 PM 42.2638 -27.1669 110° East  Level FlightAware Approximate
Fri 01:33:00 PM 42.2183 -27.0016 110° East  Level FlightAware Approximate
Fri 01:34:00 PM 42.1725 -26.8365 110° East  Level FlightAware Approximate
Fri 01:35:00 PM 42.1264 -26.6717 111° Southeast  Level FlightAware Approximate
Fri 01:36:00 PM 42.0801 -26.5071 111° Southeast  Level FlightAware Approximate
Fri 01:36:51 PM 42.0790 -26.4940 111° Southeast 475 547 37,000  Level FlightAware ADS-B
Fri 01:37:00 PM 42.0336 -26.3427 111° Southeast  Level FlightAware Approximate
Fri 01:37:27 PM 42.0560 -26.4090 110° East 475 547 37,000  Level FlightAware ADS-B
Fri 01:38:03 PM 42.0330 -26.3240 110° East 475 547 37,000  Level FlightAware ADS-B
Fri 01:38:40 PM 42.0090 -26.2360 110° East 475 547 37,000  Level FlightAware ADS-B
Fri 01:39:16 PM 41.9860 -26.1510 110° East 475 547 37,000  Level FlightAware ADS-B
Fri 01:39:22 PM 41.9570 -26.0670 115° Southeast 475 547 37,000  Level FlightAware ADS-B
Fri 01:40:03 PM 41.9290 -25.9710 111° Southeast 475 547 37,000  Level FlightAware ADS-B
Fri 01:40:40 PM 41.9040 -25.8840 111° Southeast 475 547 37,000  Level FlightAware ADS-B
Fri 01:41:16 PM 41.8800 -25.8000 111° Southeast 475 547 37,000  Level FlightAware ADS-B
Fri 01:41:51 PM 41.8570 -25.7180 111° Southeast 475 547 37,000  Level FlightAware ADS-B
Fri 01:42:27 PM 41.8330 -25.6340 111° Southeast 475 547 37,000  Level FlightAware ADS-B
Fri 01:43:23 PM 41.7730 -25.4350 112° Southeast 476 548 37,000  Level FlightAware ADS-B
Fri 01:43:58 PM 41.7480 -25.3490 111° Southeast 476 548 37,000  Level FlightAware ADS-B
Fri 01:44:49 PM 41.7030 -25.1980 112° Southeast 476 548 37,000  Level FlightAware ADS-B
Fri 01:45:26 PM 41.6780 -25.1110 111° Southeast 476 548 37,000  Level FlightAware ADS-B
Fri 01:46:10 PM 41.6400 -24.9860 112° Southeast 477 549 37,000  Level FlightAware ADS-B
Fri 01:46:46 PM 41.6160 -24.9020 111° Southeast 477 549 37,000  Level FlightAware ADS-B
Fri 01:47:31 PM 41.5620 -24.7280 112° Southeast 478 550 37,000  Level FlightAware ADS-B
Fri 01:48:14 PM 41.5280 -24.6170 112° Southeast 477 549 37,000  Level FlightAware ADS-B
Fri 01:48:53 PM 41.5060 -24.5450 112° Southeast 477 549 37,000  Level FlightAware ADS-B
Fri 01:49:44 PM 41.4530 -24.3700 112° Southeast 478 550 37,000  Level FlightAware ADS-B
Fri 01:50:27 PM 41.4200 -24.2620 112° Southeast 478 550 37,000  Level FlightAware ADS-B
Fri 01:50:57 PM 41.4030 -24.2070 112° Southeast 478 550 37,000  Level FlightAware ADS-B
Fri 01:51:41 PM 41.3680 -24.0940 112° Southeast 478 550 37,000  Level FlightAware ADS-B
Fri 01:52:29 PM 41.3180 -23.9340 113° Southeast 479 551 37,000  Level FlightAware ADS-B
Fri 01:53:08 PM 41.2910 -23.8480 113° Southeast 479 551 37,000  Level FlightAware ADS-B
Fri 01:53:41 PM 41.2680 -23.7720 112° Southeast 479 551 37,000  Level FlightAware ADS-B
Fri 01:54:17 PM 41.2430 -23.6890 112° Southeast 479 551 37,000  Level FlightAware ADS-B
Fri 01:54:51 PM 41.2190 -23.6100 112° Southeast 479 551 37,000  Level FlightAware ADS-B
Fri 01:55:24 PM 41.1710 -23.4670 114° Southeast 480 552 37,000  Level FlightAware ADS-B
Fri 01:56:02 PM 41.1430 -23.3750 112° Southeast 479 551 37,000  Level FlightAware ADS-B
Fri 01:56:39 PM 41.1030 -23.2490 113° Southeast 479 551 37,000  Level FlightAware ADS-B
Fri 01:57:15 PM 41.0770 -23.1650 112° Southeast 479 551 37,000  Level FlightAware ADS-B
Fri 01:58:06 PM 41.0280 -23.0190 114° Southeast 478 550 37,000  Level FlightAware ADS-B
Fri 01:58:42 PM 41.0020 -22.9360 113° Southeast 478 550 37,000  Level FlightAware ADS-B
Fri 01:59:18 PM 40.9750 -22.8540 114° Southeast 478 550 37,000  Level FlightAware ADS-B
Fri 01:59:52 PM 40.9500 -22.7760 113° Southeast 478 550 37,000  Level FlightAware ADS-B
Fri 02:00:27 PM 40.9070 -22.6460 114° Southeast 477 549 37,000  Level FlightAware ADS-B
Fri 02:01:01 PM 40.8800 -22.5630 113° Southeast 477 549 37,000  Level FlightAware ADS-B
Fri 02:01:33 PM 40.8570 -22.4940 114° Southeast 477 549 37,000  Level FlightAware ADS-B
Fri 02:02:19 PM 40.8120 -22.3550 113° Southeast 477 549 37,000  Level FlightAware ADS-B
Fri 02:02:50 PM 40.7910 -22.2930 114° Southeast 477 549 37,000  Level FlightAware ADS-B
Fri 02:03:26 PM 40.7640 -22.2110 113° Southeast 477 549 37,000  Level FlightAware ADS-B
Fri 02:04:11 PM 40.7110 -22.0510 114° Southeast 478 550 37,000  Level FlightAware ADS-B
Fri 02:04:47 PM 40.6850 -21.9690 113° Southeast 478 550 37,000  Level FlightAware ADS-B
Fri 02:05:23 PM 40.6580 -21.8870 113° Southeast 478 550 37,000  Level FlightAware ADS-B
Fri 02:05:59 PM 40.6320 -21.8050 113° Southeast 478 550 37,000  Level FlightAware ADS-B
Fri 02:06:35 PM 40.6060 -21.7230 113° Southeast 478 550 37,000  Level FlightAware ADS-B
Fri 02:07:11 PM 40.5790 -21.6410 113° Southeast 478 550 37,000  Level FlightAware ADS-B
Fri 02:07:40 PM 40.5300 -21.5150 117° Southeast 915 1053 37,000  Level FlightAware ADS-B
Fri 02:08:16 PM 40.4850 -21.3840 114° Southeast 478 550 37,000  Level FlightAware ADS-B
Fri 02:08:56 PM 40.4600 -21.3120 115° Southeast 477 549 37,000  Level FlightAware ADS-B
Fri 02:09:32 PM 40.4330 -21.2300 113° Southeast 477 549 37,000  Level FlightAware ADS-B
Fri 02:10:09 PM 40.4050 -21.1470 114° Southeast 477 549 37,000  Level FlightAware ADS-B
Fri 02:10:43 PM 40.3790 -21.0710 114° Southeast 477 549 37,000  Level FlightAware ADS-B
Fri 02:11:20 PM 40.3500 -20.9870 114° Southeast 477 549 37,000  Level FlightAware ADS-B
Fri 02:11:56 PM 40.3230 -20.9070 114° Southeast 477 549 37,000  Level FlightAware ADS-B
Fri 02:12:33 PM 40.2950 -20.8230 114° Southeast 477 549 37,000  Level FlightAware ADS-B
Fri 02:13:11 PM 40.2660 -20.7380 114° Southeast 477 549 37,000  Level FlightAware ADS-B
Fri 02:13:47 PM 40.2380 -20.6570 114° Southeast 477 549 37,000  Level FlightAware ADS-B
Fri 02:14:23 PM 40.2110 -20.5760 114° Southeast 477 549 37,000  Level FlightAware ADS-B
Fri 02:14:59 PM 40.1830 -20.4960 115° Southeast 477 549 37,000  Level FlightAware ADS-B
Fri 02:15:33 PM 40.1570 -20.4190 114° Southeast 477 549 37,000  Level FlightAware ADS-B
Fri 02:16:09 PM 40.1300 -20.3390 114° Southeast 477 549 37,000  Level FlightAware ADS-B
Fri 02:16:45 PM 40.1020 -20.2580 114° Southeast 477 549 37,000  Level FlightAware ADS-B
Fri 02:17:21 PM 40.0750 -20.1770 114° Southeast 477 549 37,000  Level FlightAware ADS-B
Fri 02:17:57 PM 40.0470 -20.0970 115° Southeast 477 549 37,000  Level FlightAware ADS-B
Fri 02:18:33 PM 40.0200 -20.0160 113° Southeast 477 549 37,000  Level FlightAware ADS-B
Fri 02:21:00 PM 39.8488 -19.6615 120° Southeast  Level FlightAware Approximate
Fri 02:22:00 PM 39.7828 -19.5148 120° Southeast  Level FlightAware Approximate
Fri 02:23:00 PM 39.7166 -19.3684 120° Southeast  Level FlightAware Approximate
Fri 02:24:00 PM 39.6502 -19.2222 121° Southeast  Level FlightAware Approximate
Fri 02:25:00 PM 39.5836 -19.0764 121° Southeast  Level FlightAware Approximate
Fri 02:26:00 PM 39.5169 -18.9308 121° Southeast  Level FlightAware Approximate
Fri 02:27:00 PM 39.4499 -18.7855 121° Southeast  Level FlightAware Approximate
Fri 02:28:00 PM 39.3828 -18.6406 121° Southeast  Level FlightAware Approximate
Fri 02:29:00 PM 39.3154 -18.4958 121° Southeast  Level FlightAware Approximate
Fri 02:30:00 PM 39.2480 -18.3514 121° Southeast  Level FlightAware Approximate
Fri 02:31:00 PM 39.1803 -18.2072 121° Southeast  Level FlightAware Approximate
Fri 02:32:00 PM 39.1124 -18.0633 121° Southeast  Level FlightAware Approximate
Fri 02:33:00 PM 39.0447 -17.9195 121° Southeast  Level FlightAware Approximate
Fri 02:34:00 PM 38.9776 -17.7753 121° Southeast  Level FlightAware Approximate
Fri 02:35:00 PM 38.9102 -17.6315 121° Southeast  Level FlightAware Approximate
Fri 02:36:00 PM 38.8427 -17.4879 121° Southeast  Level FlightAware Approximate
Fri 02:37:00 PM 38.7750 -17.3446 121° Southeast  Level FlightAware Approximate
Fri 02:38:00 PM 38.7071 -17.2015 121° Southeast  Level FlightAware Approximate
Fri 02:39:00 PM 38.6391 -17.0588 121° Southeast  Level FlightAware Approximate
Fri 02:40:00 PM 38.5708 -16.9163 121° Southeast  Level FlightAware Approximate
Fri 02:41:00 PM 38.5024 -16.7740 122° Southeast  Level FlightAware Approximate
Fri 02:42:00 PM 38.4339 -16.6321 122° Southeast  Level FlightAware Approximate
Fri 02:43:00 PM 38.3651 -16.4904 122° Southeast  Level FlightAware Approximate
Fri 02:44:00 PM 38.2962 -16.3489 122° Southeast  Level FlightAware Approximate
Fri 02:45:00 PM 38.2271 -16.2078 122° Southeast  Level FlightAware Approximate
Fri 02:46:00 PM 38.1579 -16.0669 122° Southeast  Level FlightAware Approximate
Fri 02:47:00 PM 38.0883 -15.9264 122° Southeast  Level FlightAware Approximate
Fri 02:48:00 PM 38.0182 -15.7864 122° Southeast  Level FlightAware Approximate
Fri 02:49:00 PM 37.9481 -15.6467 122° Southeast  Level FlightAware Approximate
Fri 02:50:00 PM 37.8777 -15.5072 123° Southeast  Level FlightAware Approximate
Fri 02:51:00 PM 37.8072 -15.3680 123° Southeast  Level FlightAware Approximate
Fri 02:52:00 PM 37.7365 -15.2291 123° Southeast  Level FlightAware Approximate
Fri 02:53:00 PM 37.6656 -15.0905 123° Southeast  Level FlightAware Approximate
Fri 02:54:00 PM 37.5946 -14.9521 123° Southeast  Level FlightAware Approximate
Fri 02:55:00 PM 37.5235 -14.8139 123° Southeast  Level FlightAware Approximate
Fri 02:56:00 PM 37.4521 -14.6761 123° Southeast  Level FlightAware Approximate
Fri 02:57:00 PM 37.3806 -14.5385 123° Southeast  Level FlightAware Approximate
Fri 02:58:00 PM 37.3090 -14.4011 123° Southeast  Level FlightAware Approximate
Fri 02:59:00 PM 37.2372 -14.2640 123° Southeast  Level FlightAware Approximate
Fri 03:00:00 PM 37.1652 -14.1272 123° Southeast  Level FlightAware Approximate
Fri 03:01:00 PM 37.0931 -13.9907 123° Southeast  Level FlightAware Approximate
Fri 03:02:00 PM 37.0208 -13.8544 124° Southeast  Level FlightAware Approximate
Fri 03:03:00 PM 36.9484 -13.7183 124° Southeast  Level FlightAware Approximate
Fri 03:04:00 PM 36.8758 -13.5825 124° Southeast  Level FlightAware Approximate
Fri 03:04:57 PM 36.8067 -13.4538 124° Southeast  Level FlightAware Approximate
Fri 03:05:00 PM 36.8030 -13.4470 124° Southeast  Level FlightAware Approximate
Fri 03:06:00 PM 36.7301 -13.3118 124° Southeast  Level FlightAware Approximate
Fri 03:06:00 PM 36.7301 -13.3118 124° Southeast  Level FlightAware Approximate
Fri 03:07:00 PM 36.6571 -13.1768 124° Southeast  Level FlightAware Approximate
Fri 03:07:00 PM 36.6571 -13.1768 124° Southeast  Level FlightAware Approximate
Fri 03:08:00 PM 36.5839 -13.0420 124° Southeast  Level FlightAware Approximate
Fri 03:08:00 PM 36.5839 -13.0420 124° Southeast  Level FlightAware Approximate
Fri 03:09:00 PM 36.5105 -12.9075 124° Southeast  Level FlightAware Approximate
Fri 03:09:00 PM 36.5105 -12.9075 124° Southeast  Level FlightAware Approximate
Fri 03:10:00 PM 36.4370 -12.7733 124° Southeast  Level FlightAware Approximate
Fri 03:10:00 PM 36.4370 -12.7733 124° Southeast  Level FlightAware Approximate
Fri 03:11:00 PM 36.3633 -12.6393 124° Southeast  Level FlightAware Approximate
Fri 03:11:00 PM 36.3633 -12.6393 124° Southeast  Level FlightAware Approximate
Fri 03:11:40 PM 35.5340 -12.2670 124° Southeast 484 557 37,000  Level FlightAware ADS-B
Fri 03:11:40 PM 35.5340 -12.2670 124° Southeast 484 557 37,000  Level FlightAware ADS-B
Fri 03:12:18 PM 35.4980 -12.1880 119° Southeast 485 558 37,000  Level FlightAware ADS-B
Fri 03:12:18 PM 35.4980 -12.1880 119° Southeast 485 558 37,000  Level FlightAware ADS-B
Fri 03:13:00 PM 35.4470 -12.0770 119° Southeast 483 556 37,000  Level FlightAware ADS-B
Fri 03:13:00 PM 35.4470 -12.0770 119° Southeast 483 556 37,000  Level FlightAware ADS-B
Fri 03:13:57 PM 35.3920 -11.9570 119° Southeast 483 556 37,000  Level FlightAware ADS-B
Fri 03:13:57 PM 35.3920 -11.9570 119° Southeast 483 556 37,000  Level FlightAware ADS-B
Fri 03:14:33 PM 35.3580 -11.8830 119° Southeast 483 556 37,000  Level FlightAware ADS-B
Fri 03:14:33 PM 35.3580 -11.8830 119° Southeast 483 556 37,000  Level FlightAware ADS-B
Fri 03:15:09 PM 35.3250 -11.8100 119° Southeast 483 556 37,000  Level FlightAware ADS-B
Fri 03:15:09 PM 35.3250 -11.8100 119° Southeast 483 556 37,000  Level FlightAware ADS-B
Fri 03:15:45 PM 35.2920 -11.7370 119° Southeast 483 556 37,000  Level FlightAware ADS-B
Fri 03:15:45 PM 35.2920 -11.7370 119° Southeast 483 556 37,000  Level FlightAware ADS-B
Fri 03:16:21 PM 35.2590 -11.6630 119° Southeast 483 556 37,000  Level FlightAware ADS-B
Fri 03:16:21 PM 35.2590 -11.6630 119° Southeast 483 556 37,000  Level FlightAware ADS-B
Fri 03:16:57 PM 35.2260 -11.5900 119° Southeast 483 556 37,000  Level FlightAware ADS-B
Fri 03:16:57 PM 35.2260 -11.5900 119° Southeast 483 556 37,000  Level FlightAware ADS-B
Fri 03:17:34 PM 35.1920 -11.5150 119° Southeast 483 556 37,000  Level FlightAware ADS-B
Fri 03:17:34 PM 35.1920 -11.5150 119° Southeast 483 556 37,000  Level FlightAware ADS-B
Fri 03:18:12 PM 35.1570 -11.4380 119° Southeast 483 556 37,000  Level FlightAware ADS-B
Fri 03:18:12 PM 35.1570 -11.4380 119° Southeast 483 556 37,000  Level FlightAware ADS-B
Fri 03:18:46 PM 35.1250 -11.3690 120° Southeast 483 556 37,000  Level FlightAware ADS-B
Fri 03:18:46 PM 35.1250 -11.3690 120° Southeast 483 556 37,000  Level FlightAware ADS-B
Fri 03:19:22 PM 35.0920 -11.2960 119° Southeast 483 556 37,000  Level FlightAware ADS-B
Fri 03:19:22 PM 35.0920 -11.2960 119° Southeast 483 556 37,000  Level FlightAware ADS-B
Fri 03:19:59 PM 35.0580 -11.2200 119° Southeast 483 556 37,000  Level FlightAware ADS-B
Fri 03:19:59 PM 35.0580 -11.2200 119° Southeast 483 556 37,000  Level FlightAware ADS-B
Fri 03:20:35 PM 35.0250 -11.1470 119° Southeast 483 556 37,000  Level FlightAware ADS-B
Fri 03:20:35 PM 35.0250 -11.1470 119° Southeast 483 556 37,000  Level FlightAware ADS-B
Fri 03:21:12 PM 34.9910 -11.0720 119° Southeast 483 556 37,000  Level FlightAware ADS-B
Fri 03:21:12 PM 34.9910 -11.0720 119° Southeast 483 556 37,000  Level FlightAware ADS-B
Fri 03:21:48 PM 34.9580 -10.9990 119° Southeast 483 556 37,000  Level FlightAware ADS-B
Fri 03:21:48 PM 34.9580 -10.9990 119° Southeast 483 556 37,000  Level FlightAware ADS-B
Fri 03:22:24 PM 34.9250 -10.9260 119° Southeast 483 556 37,000  Level FlightAware ADS-B
Fri 03:22:24 PM 34.9250 -10.9260 119° Southeast 483 556 37,000  Level FlightAware ADS-B
Fri 03:23:00 PM 34.8910 -10.8540 120° Southeast 483 556 37,000  Level FlightAware ADS-B
Fri 03:23:00 PM 34.8910 -10.8540 120° Southeast 483 556 37,000 -1,305 Level FlightAware ADS-B
Fri 03:25:00 PM 34.7662 -10.5745 118° Southeast  Level Estimated
Fri 03:25:00 PM 34.7662 -10.5745 118° Southeast  Level Estimated
Fri 03:26:00 PM 34.7035 -10.4351 119° Southeast  Level Estimated
Fri 03:26:00 PM 34.7035 -10.4351 119° Southeast  Level Estimated
Fri 03:27:00 PM 34.6407 -10.2958 119° Southeast  Level Estimated
Fri 03:27:00 PM 34.6407 -10.2958 119° Southeast  Level Estimated
Fri 03:28:00 PM 34.5777 -10.1568 119° Southeast  Level Estimated
Fri 03:28:00 PM 34.5777 -10.1568 119° Southeast  Level Estimated
Fri 03:29:00 PM 34.5146 -10.0180 119° Southeast  Level Estimated
Fri 03:29:00 PM 34.5146 -10.0180 119° Southeast  Level Estimated
Fri 03:30:00 PM 34.4513 -9.8794 119° Southeast  Level Estimated
Fri 03:30:00 PM 34.4513 -9.8794 119° Southeast  Level Estimated
Fri 03:31:00 PM 34.3879 -9.7411 119° Southeast  Level Estimated
Fri 03:31:00 PM 34.3879 -9.7411 119° Southeast  Level Estimated
Fri 03:32:00 PM 34.3243 -9.6029 119° Southeast  Level Estimated
Fri 03:32:00 PM 34.3243 -9.6029 119° Southeast  Level Estimated
Fri 03:33:00 PM 34.2605 -9.4649 119° Southeast  Level Estimated
Fri 03:33:00 PM 34.2605 -9.4649 119° Southeast  Level Estimated
Fri 03:34:00 PM 34.1966 -9.3272 119° Southeast  Level Estimated
Fri 03:34:00 PM 34.1966 -9.3272 119° Southeast  Level Estimated
Fri 03:35:00 PM 34.1325 -9.1896 119° Southeast  Level Estimated
Fri 03:35:00 PM 34.1325 -9.1896 119° Southeast  Level Estimated
Fri 03:36:00 PM 34.0683 -9.0523 119° Southeast  Level Estimated
Fri 03:36:00 PM 34.0683 -9.0523 119° Southeast  Level Estimated
Fri 03:37:00 PM 34.0040 -8.9152 119° Southeast  Level Estimated
Fri 03:37:00 PM 34.0040 -8.9152 119° Southeast  Level Estimated
Fri 03:38:00 PM 33.9394 -8.7783 120° Southeast  Level Estimated
Fri 03:38:00 PM 33.9394 -8.7783 120° Southeast  Level Estimated
Fri 03:39:00 PM 33.8748 -8.6416 120° Southeast  Level Estimated
Fri 03:39:00 PM 33.8748 -8.6416 120° Southeast  Level Estimated
Fri 03:39:24 PM 33.6620 -8.4390 120° Southeast 396 456 15,600  Level FlightAware ADS-B
Fri 03:39:24 PM 33.6620 -8.4390 120° Southeast 396 456 15,600 -2,118 Level FlightAware ADS-B
Fri 03:39:58 PM 33.6300 -8.3770 122° Southeast 390 449 14,400 -2,118 Descending FlightAware ADS-B
Fri 03:39:58 PM 33.6300 -8.3770 122° Southeast 390 449 14,400 -2,057 Level FlightAware ADS-B
Fri 03:40:33 PM 33.5960 -8.3120 122° Southeast 383 441 13,200 -2,057 Descending FlightAware ADS-B
Fri 03:40:33 PM 33.5960 -8.3120 122° Southeast 383 441 13,200 -2,229 Level FlightAware ADS-B
Fri 03:41:08 PM 33.5630 -8.2490 122° Southeast 375 432 11,900 -2,229 Descending FlightAware ADS-B
Fri 03:41:08 PM 33.5630 -8.2490 122° Southeast 375 432 11,900 -2,057 Level FlightAware ADS-B
Fri 03:41:43 PM 33.5300 -8.1860 122° Southeast 369 425 10,700 -2,057 Descending FlightAware ADS-B
Fri 03:41:43 PM 33.5300 -8.1860 122° Southeast 369 425 10,700 -686 Level FlightAware ADS-B
Fri 03:42:18 PM 33.5010 -8.1280 121° Southeast 342 394 10,300 -686 Descending FlightAware ADS-B
Fri 03:42:18 PM 33.5010 -8.1280 121° Southeast 342 394 10,300 -500 Level FlightAware ADS-B
Fri 03:42:54 PM 33.4720 -8.0740 123° Southeast 312 359 10,000 -500 Descending FlightAware ADS-B
Fri 03:42:54 PM 33.4720 -8.0740 123° Southeast 312 359 10,000 -1,200 Level FlightAware ADS-B
Fri 03:43:24 PM 33.4500 -8.0310 122° Southeast 305 351 9,400 -1,200 Descending FlightAware ADS-B
Fri 03:43:24 PM 33.4500 -8.0310 122° Southeast 305 351 9,400 -300 Level FlightAware ADS-B
Fri 03:43:44 PM 33.4360 -8.0040 122° Southeast 288 331 9,300 -300 Descending FlightAware ADS-B
Fri 03:43:44 PM 33.4360 -8.0040 122° Southeast 288 331 9,300 -1,333 Level FlightAware ADS-B
Fri 03:43:53 PM 33.4280 -7.9900 124° Southeast 282 325 9,100 -1,333 Descending FlightAware ADS-B
Fri 03:43:53 PM 33.4280 -7.9900 124° Southeast 282 325 9,100 -480 Level FlightAware ADS-B
Fri 03:44:18 PM 33.4110 -7.9570 122° Southeast 270 311 8,900 -480 Descending FlightAware ADS-B
Fri 03:44:18 PM 33.4110 -7.9570 122° Southeast 270 311 8,900 -900 Level FlightAware ADS-B
Fri 03:44:38 PM 33.3980 -7.9320 122° Southeast 259 298 8,600 -900 Descending FlightAware ADS-B
Fri 03:44:38 PM 33.3980 -7.9320 122° Southeast 259 298 8,600 -286 Level FlightAware ADS-B
Fri 03:44:59 PM 33.3860 -7.9080 121° Southeast 248 285 8,500 -286 Descending FlightAware ADS-B
Fri 03:44:59 PM 33.3860 -7.9080 121° Southeast 248 285 8,500 -947 Level FlightAware ADS-B
Fri 03:45:18 PM 33.3740 -7.8860 123° Southeast 243 280 8,200 -947 Descending FlightAware ADS-B
Fri 03:45:18 PM 33.3740 -7.8860 123° Southeast 243 280 8,200 -1,200 Level FlightAware ADS-B
Fri 03:45:33 PM 33.3650 -7.8690 122° Southeast 242 278 7,900 -1,200 Descending FlightAware ADS-B
Fri 03:45:33 PM 33.3650 -7.8690 122° Southeast 242 278 7,900 -818 Level FlightAware ADS-B
Fri 03:45:55 PM 33.3530 -7.8460 122° Southeast 243 280 7,600 -818 Descending FlightAware ADS-B
Fri 03:45:55 PM 33.3530 -7.8460 122° Southeast 243 280 7,600 -1,846 Level FlightAware ADS-B
Fri 03:46:08 PM 33.3440 -7.8300 124° Southeast 236 272 7,200 -1,846 Descending FlightAware ADS-B
Fri 03:46:08 PM 33.3440 -7.8300 124° Southeast 236 272 7,200 -1,200 Level FlightAware ADS-B
Fri 03:46:13 PM 33.3400 -7.8260 140° Southeast 231 266 7,100 -1,200 Descending FlightAware ADS-B
Fri 03:46:13 PM 33.3400 -7.8260 140° Southeast 231 266 7,100 -500 Level FlightAware ADS-B
Fri 03:46:25 PM 33.3310 -7.8200 151° Southeast 221 254 7,000 -500 Descending FlightAware ADS-B
Fri 03:46:25 PM 33.3310 -7.8200 151° Southeast 221 254 7,000 -1,667 Level FlightAware ADS-B
Fri 03:46:43 PM 33.3110 -7.8120 162° South 223 257 6,500 -1,667 Descending FlightAware ADS-B
Fri 03:46:43 PM 33.3110 -7.8120 162° South 223 257 6,500 -1,200 Level FlightAware ADS-B
Fri 03:47:03 PM 33.2920 -7.8040 161° South 230 265 6,100 -1,200 Descending FlightAware ADS-B
Fri 03:47:03 PM 33.2920 -7.8040 161° South 230 265 6,100 -400 Level FlightAware ADS-B
Fri 03:47:18 PM 33.2760 -7.7970 160° South 234 269 6,000 -400 Descending FlightAware ADS-B
Fri 03:47:18 PM 33.2760 -7.7970 160° South 234 269 6,000  Level FlightAware ADS-B
Fri 03:47:38 PM 33.2600 -7.7900 160° South 234 269 6,000  Level FlightAware ADS-B
Fri 03:47:38 PM 33.2600 -7.7900 160° South 234 269 6,000 -300 Level FlightAware ADS-B
Fri 03:47:58 PM 33.2350 -7.7790 160° South 231 266 5,900 -300 Descending FlightAware ADS-B
Fri 03:47:58 PM 33.2350 -7.7790 160° South 231 266 5,900 -600 Level FlightAware ADS-B
Fri 03:48:18 PM 33.2200 -7.7720 159° South 231 266 5,700 -600 Descending FlightAware ADS-B
Fri 03:48:18 PM 33.2200 -7.7720 159° South 231 266 5,700  Level FlightAware ADS-B
Fri 03:51:00 PM 33.3680 -7.5880 46° Northeast  Level Estimated
Fri 03:52:00 PM 33.3680 -7.5880 103° East  Level Estimated
Fri 03:53:00 PM 33.3680 -7.5880 103° East  Level Estimated
Fri 03:54:00 PM 33.3680 -7.5880 103° East  Level Estimated
Fri 03:55:00 PM 33.3680 -7.5880 103° East  Level Estimated
Fri 03:56:00 PM 33.3680 -7.5880 103° East  Level Estimated
Fri 03:57:00 PM 33.3680 -7.5880 103° East  Level Estimated
Fri 03:58:00 PM 33.3680 -7.5880 103° East  Level Estimated
Fri 03:59:00 PM 33.3680 -7.5880 103° East  Level Estimated
Fri 04:00:00 PM 33.3680 -7.5880 103° East  Level Estimated
Fri 04:01:00 PM 33.3680 -7.5880 103° East  Level Estimated
Fri 04:02:00 PM 33.3680 -7.5880 103° East  Level Estimated
Fri 04:03:00 PM 33.3680 -7.5880 103° East  Level Estimated
Fri 04:04:00 PM 33.3680 -7.5880 103° East  Level Estimated
Fri 04:05:00 PM 33.3680 -7.5880 103° East  Level Estimated
Fri 04:06:00 PM 33.3680 -7.5880 103° East  Level Estimated
Fri 04:07:00 PM 33.3680 -7.5880 103° East  Level Estimated
Fri 04:08:00 PM 33.3680 -7.5880 103° East  Level Estimated
Fri 04:09:00 PM 33.3680 -7.5880 103° East  Level Estimated
Fri 04:10:00 PM 33.3680 -7.5880 103° East  Level Estimated
Fri 04:11:00 PM 33.3680 -7.5880 103° East  Level Estimated
Fri 04:12:00 PM 33.3680 -7.5880 103° East  Level Estimated
Fri 04:13:00 PM 33.3680 -7.5880 103° East  Level Estimated
Fri 04:14:00 PM 33.3680 -7.5880 103° East  Level Estimated
Fri 04:15:00 PM 33.3680 -7.5880 103° East  Level Estimated

Login

Don't have an account? Register now (free) for customized features, flight alerts, and more!